Time;durP1;ratioP1;P1;durP2;ratioP2;P2;SDS_P1;SDS_P2;PMS_P1;PMS_P2;Temp;Humidity;BMP_temperature;BMP_pressure;BME280_temperature;BME280_humidity;BME280_pressure;Samples;Min_cycle;Max_cycle;Signal;HPM_P1;HPM_P2
2020/12/24 05:01:50;;;;;;;3.58;3.28;;;5.20;99.90;;;;;;5342268;23;20340;-70
2020/12/24 05:04:17;;;;;;;4.10;3.80;;;5.20;99.90;;;;;;4954322;29;20205;-70
2020/12/24 05:06:43;;;;;;;5.25;4.72;;;5.30;99.90;;;;;;4953701;28;20337;-69
2020/12/24 05:09:10;;;;;;;5.53;4.22;;;5.30;99.90;;;;;;4954327;29;20213;-69
2020/12/24 05:11:36;;;;;;;4.53;4.15;;;5.30;99.90;;;;;;4953824;28;20233;-69
2020/12/24 05:14:17;;;;;;;8.50;4.45;;;5.20;99.90;;;;;;4954087;28;20209;-70
2020/12/24 05:16:57;;;;;;;4.38;3.95;;;5.30;99.90;;;;;;4954480;29;20555;-69
2020/12/24 05:19:23;;;;;;;3.60;3.30;;;5.20;99.90;;;;;;4953867;29;20212;-70
2020/12/24 05:21:49;;;;;;;3.25;2.65;;;5.20;99.90;;;;;;4953730;28;20277;-69
2020/12/24 05:24:26;;;;;;;2.45;2.22;;;5.20;99.90;;;;;;4954511;28;20217;-70
2020/12/24 05:26:53;;;;;;;3.72;2.67;;;5.20;99.90;;;;;;4953692;29;20221;-69
2020/12/24 05:29:21;;;;;;;3.28;2.97;;;5.20;99.90;;;;;;4953759;28;20272;-69
2020/12/24 05:31:52;;;;;;;4.05;2.50;;;5.20;99.90;;;;;;4955159;28;20232;-69
2020/12/24 05:34:21;;;;;;;3.15;2.20;;;5.20;99.90;;;;;;4954227;28;20217;-70
2020/12/24 05:36:47;;;;;;;2.10;2.00;;;5.10;99.90;;;;;;4954162;28;20208;-69
2020/12/24 05:39:14;;;;;;;1.30;1.30;;;5.00;99.90;;;;;;4953748;28;20214;-69
2020/12/24 05:41:40;;;;;;;1.33;1.33;;;4.90;99.90;;;;;;4953535;28;20225;-68
2020/12/24 05:44:08;;;;;;;1.35;1.35;;;4.80;99.90;;;;;;4953134;28;20209;-69
2020/12/24 05:46:42;;;;;;;1.10;1.10;;;4.80;99.90;;;;;;4953804;28;20233;-69
2020/12/24 05:49:09;;;;;;;0.63;0.63;;;4.80;99.90;;;;;;4953423;28;20205;-69
2020/12/24 05:51:37;;;;;;;0.77;0.77;;;4.70;99.90;;;;;;4953578;28;20232;-70
2020/12/24 05:54:05;;;;;;;1.20;1.20;;;4.70;99.90;;;;;;4953412;28;20250;-70
2020/12/24 05:56:33;;;;;;;0.73;0.73;;;4.70;99.90;;;;;;4953244;28;20201;-70
2020/12/24 05:59:03;;;;;;;0.47;0.47;;;4.70;99.90;;;;;;4953152;28;20208;-69
2020/12/24 06:01:37;;;;;;;0.30;0.30;;;4.70;99.90;;;;;;4953765;28;20294;-68
2020/12/24 06:04:05;;;;;;;0.20;0.20;;;4.60;99.90;;;;;;4953059;28;20205;-68
2020/12/24 06:06:47;;;;;;;0.73;0.35;;;4.50;99.90;;;;;;4953666;28;20255;-68
2020/12/24 06:09:19;;;;;;;0.90;0.63;;;4.40;99.90;;;;;;4953097;28;20205;-69
2020/12/24 06:11:50;;;;;;;0.45;0.45;;;4.40;99.90;;;;;;4953230;28;20253;-67
2020/12/24 06:14:31;;;;;;;0.52;0.40;;;4.40;99.90;;;;;;4952091;28;20709;-70
2020/12/24 06:17:06;;;;;;;0.40;0.40;;;4.40;99.90;;;;;;4953537;28;20573;-68
2020/12/24 06:19:40;;;;;;;0.40;0.40;;;4.40;99.90;;;;;;4956011;28;20204;-68
2020/12/24 06:22:07;;;;;;;0.20;0.20;;;4.30;99.90;;;;;;4957019;28;20232;-68
2020/12/24 06:24:37;;;;;;;0.30;0.30;;;4.30;99.90;;;;;;4956412;28;20224;-68
2020/12/24 06:27:07;;;;;;;0.30;0.28;;;4.20;99.90;;;;;;4956051;28;20225;-68
2020/12/24 06:29:39;;;;;;;0.30;0.30;;;4.20;99.90;;;;;;4956496;28;20201;-68
2020/12/24 06:32:08;;;;;;;0.30;0.30;;;4.20;99.90;;;;;;4957025;28;20312;-68
2020/12/24 06:34:39;;;;;;;0.30;0.30;;;4.10;99.90;;;;;;4956569;28;20229;-69
2020/12/24 06:37:13;;;;;;;0.82;0.20;;;4.00;99.90;;;;;;4956877;28;20554;-70
2020/12/24 06:39:41;;;;;;;0.20;0.20;;;3.90;99.90;;;;;;4956890;28;20580;-70
2020/12/24 06:42:27;;;;;;;0.35;0.35;;;3.90;99.90;;;;;;4955998;28;20333;-70
2020/12/24 06:44:54;;;;;;;0.63;0.30;;;3.90;99.90;;;;;;4955777;28;20217;-70
2020/12/24 06:47:20;;;;;;;0.30;0.30;;;3.80;99.90;;;;;;4956540;29;20236;-70
2020/12/24 06:49:46;;;;;;;0.20;0.20;;;3.80;99.90;;;;;;4956844;28;20209;-70
2020/12/24 06:52:27;;;;;;;0.30;0.30;;;3.80;99.90;;;;;;4956483;28;20237;-70
2020/12/24 06:55:12;;;;;;;0.20;0.20;;;3.70;99.90;;;;;;4956786;28;20209;-70
2020/12/24 06:57:41;;;;;;;0.20;0.20;;;3.60;99.90;;;;;;4955422;28;20621;-70
2020/12/24 07:00:21;;;;;;;0.20;0.20;;;3.50;99.90;;;;;;4956892;28;20216;-70
2020/12/24 07:02:49;;;;;;;0.80;0.75;;;3.50;99.90;;;;;;4955604;28;20679;-70
2020/12/24 07:05:43;;;;;;;0.30;0.30;;;3.40;99.90;;;;;;4955777;28;20246;-70
2020/12/24 07:08:11;;;;;;;0.40;0.40;;;3.40;99.90;;;;;;4956212;28;20213;-70
2020/12/24 07:10:44;;;;;;;0.60;0.60;;;3.40;99.90;;;;;;4956858;28;20237;-70
2020/12/24 07:13:29;;;;;;;0.60;0.60;;;3.40;99.90;;;;;;4954504;28;20201;-70
2020/12/24 07:15:56;;;;;;;0.43;0.43;;;3.40;99.90;;;;;;4956303;28;20201;-70
2020/12/24 07:18:24;;;;;;;0.70;0.70;;;3.30;99.90;;;;;;4956251;28;20324;-70
2020/12/24 07:20:50;;;;;;;1.17;1.13;;;3.30;99.90;;;;;;4955964;28;20233;-70
2020/12/24 07:23:28;;;;;;;0.60;0.60;;;3.30;99.90;;;;;;4955065;28;20205;-70
2020/12/24 07:25:54;;;;;;;0.93;0.93;;;3.20;99.90;;;;;;4955713;28;20311;-70
2020/12/24 07:28:20;;;;;;;1.10;1.10;;;3.20;99.90;;;;;;4954765;28;20205;-69
2020/12/24 07:30:56;;;;;;;1.20;1.20;;;3.10;99.90;;;;;;4955922;28;20229;-69
2020/12/24 07:33:22;;;;;;;0.95;0.95;;;3.10;99.90;;;;;;4955249;28;20209;-68
2020/12/24 07:35:48;;;;;;;1.50;1.25;;;3.00;99.90;;;;;;4955530;28;20209;-68
2020/12/24 07:38:18;;;;;;;1.13;1.13;;;3.00;99.90;;;;;;4956071;28;20213;-69
2020/12/24 07:40:45;;;;;;;0.93;0.93;;;3.00;99.90;;;;;;4955420;28;20225;-69
2020/12/24 07:43:11;;;;;;;2.22;2.13;;;3.00;99.90;;;;;;4953783;29;20197;-69
2020/12/24 07:45:38;;;;;;;1.27;1.27;;;3.00;99.90;;;;;;4955630;28;20224;-69
2020/12/24 07:48:13;;;;;;;1.05;1.05;;;3.00;99.90;;;;;;4955930;28;20209;-69
2020/12/24 07:50:40;;;;;;;6.55;6.15;;;2.90;99.90;;;;;;4955700;28;20233;-69
2020/12/24 07:53:08;;;;;;;0.80;0.80;;;3.00;99.90;;;;;;4954418;28;20292;-70
2020/12/24 07:55:34;;;;;;;1.40;1.30;;;2.90;99.90;;;;;;4955123;28;20220;-71
2020/12/24 07:58:08;;;;;;;0.70;0.70;;;2.80;99.90;;;;;;4955039;28;20264;-71
2020/12/24 08:00:42;;;;;;;0.70;0.70;;;2.80;99.90;;;;;;4955527;28;20221;-71
2020/12/24 08:03:09;;;;;;;1.00;1.00;;;2.70;99.90;;;;;;4954097;28;20205;-71
2020/12/24 08:05:35;;;;;;;0.82;0.82;;;2.60;99.90;;;;;;4955690;28;20591;-70
2020/12/24 08:08:01;;;;;;;1.10;1.10;;;2.60;99.90;;;;;;4955217;28;20209;-70
2020/12/24 08:10:27;;;;;;;1.10;1.10;;;2.60;99.90;;;;;;4955812;28;20256;-70
2020/12/24 08:13:05;;;;;;;0.77;0.77;;;2.60;99.90;;;;;;4953074;28;20214;-70
2020/12/24 08:15:33;;;;;;;1.58;1.58;;;2.60;99.90;;;;;;4955707;28;20268;-71
2020/12/24 08:18:02;;;;;;;1.35;1.35;;;2.60;99.90;;;;;;4954670;28;20263;-71
2020/12/24 08:20:34;;;;;;;1.98;1.05;;;2.60;99.90;;;;;;4955732;28;20406;-71
2020/12/24 08:23:10;;;;;;;0.73;0.73;;;2.70;99.90;;;;;;4953428;28;20297;-71
2020/12/24 08:25:36;;;;;;;1.25;1.25;;;2.80;99.90;;;;;;4955294;28;20209;-70
2020/12/24 08:28:03;;;;;;;1.38;1.27;;;2.80;99.90;;;;;;4952318;28;20308;-70
2020/12/24 08:30:31;;;;;;;1.17;1.17;;;2.90;99.90;;;;;;4952924;28;20236;-71
2020/12/24 08:32:59;;;;;;;1.65;1.55;;;2.90;99.90;;;;;;4950011;28;20563;-70
2020/12/24 08:35:29;;;;;;;0.93;0.93;;;3.00;99.90;;;;;;4954822;28;20208;-70
2020/12/24 08:38:08;;;;;;;0.95;0.95;;;3.10;99.90;;;;;;4954286;28;20284;-70
2020/12/24 08:40:35;;;;;;;1.10;1.10;;;3.10;99.90;;;;;;4954062;28;20759;-70
2020/12/24 08:43:06;;;;;;;1.00;1.00;;;3.20;99.90;;;;;;4952575;29;20252;-70
2020/12/24 08:45:32;;;;;;;1.15;1.15;;;3.20;99.90;;;;;;4954314;28;20217;-70
2020/12/24 08:47:59;;;;;;;1.40;1.38;;;3.30;99.90;;;;;;4951222;28;20209;-69
2020/12/24 08:50:30;;;;;;;1.80;1.70;;;3.30;99.90;;;;;;4954882;28;20201;-70
2020/12/24 08:52:56;;;;;;;2.20;2.10;;;3.20;99.90;;;;;;4952957;28;20221;-71
2020/12/24 08:55:27;;;;;;;2.20;2.10;;;3.30;99.90;;;;;;4954633;28;20528;-70
2020/12/24 08:57:53;;;;;;;1.42;1.42;;;3.30;99.90;;;;;;4953439;28;20567;-70
2020/12/24 09:00:19;;;;;;;1.40;1.40;;;3.30;99.90;;;;;;4953164;28;20547;-70
2020/12/24 09:02:46;;;;;;;1.73;1.73;;;3.30;99.90;;;;;;4951573;28;20205;-70
2020/12/24 09:05:14;;;;;;;1.83;1.73;;;3.30;99.90;;;;;;4954734;28;20259;-70
2020/12/24 09:07:42;;;;;;;1.92;1.83;;;3.30;99.90;;;;;;4954371;28;20237;-71
2020/12/24 09:10:10;;;;;;;2.35;2.25;;;3.40;99.90;;;;;;4955396;28;20209;-71
2020/12/24 09:12:37;;;;;;;2.45;2.35;;;3.40;99.90;;;;;;4953261;28;20212;-70
2020/12/24 09:15:05;;;;;;;1.50;1.50;;;3.40;99.90;;;;;;4954813;28;20212;-71
2020/12/24 09:17:32;;;;;;;2.00;1.90;;;3.40;99.90;;;;;;4950922;28;20206;-71
2020/12/24 09:20:06;;;;;;;2.33;2.13;;;3.50;99.90;;;;;;4954029;28;20344;-72
2020/12/24 09:22:33;;;;;;;2.72;2.55;;;3.50;99.90;;;;;;4951953;28;20256;-72
2020/12/24 09:24:59;;;;;;;2.20;2.08;;;3.60;99.90;;;;;;4953148;28;20209;-70
2020/12/24 09:27:25;;;;;;;2.55;2.35;;;3.60;99.90;;;;;;4952486;29;20693;-71
2020/12/24 09:29:51;;;;;;;3.13;2.92;;;3.60;99.90;;;;;;4952913;28;20220;-72
2020/12/24 09:32:18;;;;;;;2.45;2.20;;;3.70;99.90;;;;;;4947078;28;20427;-71
2020/12/24 09:34:44;;;;;;;6.68;2.60;;;3.80;99.90;;;;;;4953155;28;20690;-70
2020/12/24 09:37:11;;;;;;;3.75;3.15;;;3.80;99.90;;;;;;4953616;28;20717;-71
2020/12/24 09:39:38;;;;;;;3.17;2.97;;;3.80;99.90;;;;;;4952926;28;20205;-71
2020/12/24 09:42:05;;;;;;;2.17;2.08;;;3.90;99.90;;;;;;4952190;28;20580;-71
2020/12/24 09:44:31;;;;;;;3.45;3.00;;;3.90;99.90;;;;;;4952071;28;20292;-70
2020/12/24 09:46:57;;;;;;;4.20;3.90;;;4.00;99.90;;;;;;4950322;28;20213;-71
2020/12/24 09:49:23;;;;;;;2.70;2.50;;;4.00;99.90;;;;;;4953815;28;20209;-71
2020/12/24 09:51:49;;;;;;;2.90;2.70;;;4.00;99.90;;;;;;4952101;28;20235;-72
2020/12/24 09:54:16;;;;;;;3.17;2.85;;;4.10;99.90;;;;;;4957119;29;20209;-71
2020/12/24 09:56:43;;;;;;;3.20;2.72;;;4.10;99.90;;;;;;4956354;29;20200;-71
2020/12/24 09:59:09;;;;;;;4.72;3.80;;;4.20;99.90;;;;;;4953704;28;20225;-71
2020/12/24 10:01:35;;;;;;;3.90;3.60;;;4.20;99.90;;;;;;4956098;28;20272;-71
2020/12/24 10:04:01;;;;;;;3.65;2.97;;;4.30;99.90;;;;;;4956255;28;20204;-70
2020/12/24 10:06:29;;;;;;;4.00;2.95;;;4.30;99.90;;;;;;4956663;28;20229;-70
2020/12/24 10:08:56;;;;;;;4.82;3.38;;;4.30;99.90;;;;;;4956915;28;20213;-71
2020/12/24 10:11:22;;;;;;;4.75;3.00;;;4.40;99.90;;;;;;4955838;28;20280;-69
2020/12/24 10:13:49;;;;;;;3.83;3.55;;;4.40;99.90;;;;;;4956038;28;20230;-70
2020/12/24 10:16:15;;;;;;;3.10;2.80;;;4.50;99.90;;;;;;4956785;28;20205;-70
2020/12/24 10:18:41;;;;;;;5.45;3.35;;;4.50;99.90;;;;;;4956761;28;20582;-70
2020/12/24 10:21:10;;;;;;;3.25;2.95;;;4.50;99.90;;;;;;4955727;28;20705;-69
2020/12/24 10:23:36;;;;;;;4.93;3.95;;;4.60;99.90;;;;;;4955444;28;20300;-70
2020/12/24 10:26:02;;;;;;;3.13;3.00;;;4.60;99.90;;;;;;4956541;28;20673;-70
2020/12/24 10:28:29;;;;;;;7.97;3.97;;;4.60;99.90;;;;;;4955780;28;20213;-70
2020/12/24 10:30:56;;;;;;;4.82;3.83;;;4.70;99.90;;;;;;4955702;28;20221;-70
2020/12/24 10:33:22;;;;;;;3.95;3.60;;;4.70;99.90;;;;;;4956395;28;20252;-70
2020/12/24 10:35:48;;;;;;;5.22;3.95;;;4.70;99.90;;;;;;4948072;28;20213;-70
2020/12/24 10:38:14;;;;;;;4.82;4.00;;;4.70;99.90;;;;;;4944940;29;20609;-70
2020/12/24 10:40:40;;;;;;;4.32;4.00;;;4.80;99.90;;;;;;4947084;28;20222;-70
2020/12/24 10:43:07;;;;;;;4.65;4.25;;;4.80;99.90;;;;;;4954529;29;20595;-70
2020/12/24 10:45:33;;;;;;;8.02;4.32;;;4.80;99.90;;;;;;4956440;28;20518;-70
2020/12/24 10:48:00;;;;;;;3.60;3.40;;;4.80;99.90;;;;;;4955576;28;20258;-70
2020/12/24 10:50:26;;;;;;;4.13;3.70;;;4.80;99.90;;;;;;4956594;28;20209;-70
2020/12/24 10:52:52;;;;;;;4.57;4.22;;;4.80;99.90;;;;;;4947058;28;20221;-70
2020/12/24 10:55:18;;;;;;;5.57;4.43;;;4.80;99.90;;;;;;4955310;29;20236;-70
2020/12/24 10:57:46;;;;;;;5.50;4.07;;;4.80;99.90;;;;;;4955001;28;20561;-70
2020/12/24 11:00:12;;;;;;;4.28;3.97;;;4.80;99.90;;;;;;4956057;28;20637;-70
2020/12/24 11:02:38;;;;;;;5.53;4.47;;;4.90;99.90;;;;;;4955373;28;20280;-70
2020/12/24 11:05:05;;;;;;;4.82;2.90;;;4.90;99.90;;;;;;4955283;28;20232;-70
2020/12/24 11:07:32;;;;;;;4.57;4.18;;;4.90;99.90;;;;;;4954250;29;20276;-70
2020/12/24 11:09:58;;;;;;;4.90;4.40;;;5.00;99.90;;;;;;4955262;29;20205;-70
2020/12/24 11:12:24;;;;;;;3.60;3.25;;;5.10;99.90;;;;;;4953663;28;20722;-70
2020/12/24 11:14:51;;;;;;;5.40;4.18;;;5.10;99.90;;;;;;4954173;28;20264;-69
2020/12/24 11:17:17;;;;;;;5.15;4.75;;;5.20;99.90;;;;;;4953629;29;20607;-69
2020/12/24 11:19:43;;;;;;;4.72;4.22;;;5.30;99.90;;;;;;4955838;29;20208;-69
2020/12/24 11:22:10;;;;;;;4.53;4.15;;;5.30;99.90;;;;;;4953274;28;20678;-69
2020/12/24 11:24:36;;;;;;;5.40;4.90;;;5.30;99.90;;;;;;4954196;28;20588;-69
2020/12/24 11:27:03;;;;;;;3.95;3.58;;;5.40;99.90;;;;;;4953706;28;20226;-69
2020/12/24 11:29:29;;;;;;;4.03;3.78;;;5.50;99.90;;;;;;4954670;28;20205;-69
2020/12/24 11:31:57;;;;;;;6.55;4.70;;;5.60;99.90;;;;;;4953952;28;20229;-69
2020/12/24 11:34:26;;;;;;;4.70;4.38;;;5.60;99.90;;;;;;4936837;29;20555;-69
2020/12/24 11:36:52;;;;;;;4.85;4.45;;;5.60;99.90;;;;;;4953968;28;20211;-69
2020/12/24 11:39:19;;;;;;;4.43;4.20;;;5.60;99.90;;;;;;4952694;29;20224;-70
2020/12/24 11:41:45;;;;;;;5.53;5.03;;;5.60;99.90;;;;;;4950184;28;20230;-69
2020/12/24 11:44:12;;;;;;;4.28;3.88;;;5.60;99.90;;;;;;4955470;28;20217;-69
2020/12/24 11:46:38;;;;;;;7.10;4.57;;;5.60;99.90;;;;;;4952897;28;20221;-72
2020/12/24 11:49:04;;;;;;;5.03;4.60;;;5.60;99.90;;;;;;4954336;28;20205;-71
2020/12/24 11:51:30;;;;;;;5.53;4.43;;;5.60;99.90;;;;;;4954517;28;20232;-70
2020/12/24 11:53:57;;;;;;;6.40;4.63;;;5.60;99.90;;;;;;4954228;28;20224;-69
2020/12/24 11:56:24;;;;;;;5.22;4.18;;;5.50;99.90;;;;;;4953200;28;20198;-69
2020/12/24 11:58:52;;;;;;;8.25;4.65;;;5.50;99.90;;;;;;4951681;28;20224;-69
2020/12/24 12:01:20;;;;;;;4.40;4.07;;;5.50;99.90;;;;;;4954133;28;20244;-70
2020/12/24 12:03:46;;;;;;;7.35;6.32;;;5.50;99.90;;;;;;4952964;28;20205;-70
2020/12/24 12:06:13;;;;;;;9.82;6.20;;;5.50;99.90;;;;;;4953042;28;20225;-70
2020/12/24 12:08:39;;;;;;;14.55;8.13;;;5.50;99.90;;;;;;4953083;28;20224;-69
2020/12/24 12:11:06;;;;;;;13.32;7.72;;;5.60;99.90;;;;;;4953732;28;20228;-70
2020/12/24 12:13:35;;;;;;;12.10;8.07;;;5.50;99.90;;;;;;4947291;29;20221;-71
2020/12/24 12:16:01;;;;;;;13.52;7.80;;;5.60;99.90;;;;;;4952625;28;20356;-71
2020/12/24 12:18:27;;;;;;;12.98;8.93;;;5.60;99.90;;;;;;4953966;28;20236;-70
2020/12/24 12:20:54;;;;;;;9.55;8.13;;;5.70;99.90;;;;;;4951826;28;20221;-70
2020/12/24 12:23:20;;;;;;;18.52;8.43;;;5.60;99.90;;;;;;4948947;28;20213;-70
2020/12/24 12:25:46;;;;;;;9.85;7.38;;;5.70;99.90;;;;;;4954105;28;20622;-71
2020/12/24 12:28:12;;;;;;;13.68;7.47;;;5.60;99.90;;;;;;4940275;29;20621;-71
2020/12/24 12:30:39;;;;;;;15.07;9.18;;;5.70;99.90;;;;;;4954319;28;20589;-71
2020/12/24 12:33:05;;;;;;;14.68;9.80;;;5.70;99.90;;;;;;4952987;28;20213;-70
2020/12/24 12:35:31;;;;;;;21.80;12.52;;;5.70;99.90;;;;;;4953566;28;20535;-70
2020/12/24 12:37:58;;;;;;;26.85;11.98;;;5.80;99.90;;;;;;4953542;28;20205;-69
2020/12/24 12:40:24;;;;;;;16.33;10.75;;;5.80;99.90;;;;;;4947455;29;20209;-69
2020/12/24 12:42:50;;;;;;;14.43;10.35;;;5.90;99.90;;;;;;4952645;28;20220;-69
2020/12/24 12:45:16;;;;;;;15.10;9.35;;;6.10;99.90;;;;;;4953874;28;20669;-69
2020/12/24 12:47:43;;;;;;;13.13;9.50;;;6.10;99.90;;;;;;4952747;28;20544;-69
2020/12/24 12:50:12;;;;;;;18.77;10.40;;;6.10;99.90;;;;;;4953124;28;20228;-71
2020/12/24 12:52:38;;;;;;;11.95;8.82;;;6.10;99.90;;;;;;4953602;28;20213;-71
2020/12/24 12:55:05;;;;;;;13.52;8.45;;;6.10;99.90;;;;;;4953876;28;20217;-72
2020/12/24 12:57:35;;;;;;;17.77;10.20;;;6.00;99.90;;;;;;4951820;28;20205;-72
2020/12/24 13:00:04;;;;;;;14.40;8.98;;;6.00;99.90;;;;;;4953946;28;20628;-72
2020/12/24 13:02:30;;;;;;;18.42;10.40;;;6.00;99.90;;;;;;4954600;28;20240;-71
2020/12/24 13:04:57;;;;;;;18.02;10.73;;;5.90;99.90;;;;;;4954725;28;20253;-71
2020/12/24 13:07:23;;;;;;;14.30;11.13;;;6.00;99.90;;;;;;4953363;28;20217;-71
2020/12/24 13:09:49;;;;;;;16.70;12.15;;;6.00;99.90;;;;;;4954014;28;20213;-72
2020/12/24 13:12:15;;;;;;;21.55;12.50;;;6.00;99.90;;;;;;4953047;28;20701;-71
2020/12/24 13:14:41;;;;;;;15.00;11.20;;;6.10;99.90;;;;;;4953954;28;20225;-71
2020/12/24 13:17:07;;;;;;;17.60;9.50;;;6.10;99.90;;;;;;4953057;28;20205;-70
2020/12/24 13:19:33;;;;;;;15.43;9.70;;;6.00;99.90;;;;;;4953632;28;20264;-70
2020/12/24 13:22:00;;;;;;;16.80;10.20;;;6.10;99.90;;;;;;4951730;28;20237;-70
2020/12/24 13:24:27;;;;;;;12.90;9.25;;;6.00;99.90;;;;;;4953233;28;20209;-70
2020/12/24 13:26:54;;;;;;;19.27;11.05;;;6.00;99.90;;;;;;4952038;28;20221;-70
2020/12/24 13:29:20;;;;;;;18.45;12.13;;;6.00;99.90;;;;;;4952308;28;20268;-71
2020/12/24 13:31:48;;;;;;;19.00;11.45;;;6.00;99.90;;;;;;4952252;28;20236;-71
2020/12/24 13:34:14;;;;;;;20.60;11.20;;;6.00;99.90;;;;;;4952938;28;20244;-70
2020/12/24 13:36:40;;;;;;;17.02;10.93;;;6.00;99.90;;;;;;4953794;28;20231;-70
2020/12/24 13:39:07;;;;;;;18.48;11.32;;;6.00;99.90;;;;;;4952999;29;20206;-72
2020/12/24 13:41:33;;;;;;;16.35;11.25;;;6.00;99.90;;;;;;4953469;28;20784;-72
2020/12/24 13:43:59;;;;;;;19.83;9.95;;;6.00;99.90;;;;;;4953091;28;20239;-72
2020/12/24 13:46:26;;;;;;;21.60;11.00;;;6.00;99.90;;;;;;4952570;28;20602;-72
2020/12/24 13:48:52;;;;;;;19.02;11.77;;;6.00;99.90;;;;;;4953481;28;20605;-72
2020/12/24 13:51:18;;;;;;;23.15;11.00;;;6.00;99.90;;;;;;4953793;28;20598;-72
2020/12/24 13:53:44;;;;;;;18.65;11.80;;;6.00;99.90;;;;;;4952818;28;20232;-72
2020/12/24 13:56:14;;;;;;;22.65;12.43;;;6.00;99.90;;;;;;4954060;28;20212;-72
2020/12/24 13:58:40;;;;;;;17.15;11.25;;;6.00;99.90;;;;;;4951464;28;20244;-72
2020/12/24 14:01:08;;;;;;;20.42;11.90;;;6.00;99.90;;;;;;4953407;28;20327;-71
2020/12/24 14:03:34;;;;;;;21.83;13.98;;;6.00;99.90;;;;;;4952538;28;20208;-71
2020/12/24 14:06:00;;;;;;;22.73;12.95;;;6.00;99.90;;;;;;4953446;28;20666;-71
2020/12/24 14:08:28;;;;;;;26.63;14.30;;;6.00;99.90;;;;;;4952731;28;20646;-72
2020/12/24 14:10:54;;;;;;;21.02;15.20;;;6.00;99.90;;;;;;4953793;28;20229;-72
2020/12/24 14:13:21;;;;;;;26.40;17.10;;;6.00;99.90;;;;;;4954170;28;20209;-71
2020/12/24 14:15:47;;;;;;;20.73;14.60;;;6.00;99.90;;;;;;4955112;28;20205;-72
2020/12/24 14:18:13;;;;;;;22.75;14.88;;;6.00;99.90;;;;;;4952839;28;20647;-72
2020/12/24 14:20:40;;;;;;;22.30;13.55;;;6.00;99.90;;;;;;4953197;28;20237;-71
2020/12/24 14:23:09;;;;;;;22.63;13.93;;;6.00;99.90;;;;;;4954342;28;20214;-72
2020/12/24 14:25:39;;;;;;;25.52;16.13;;;6.00;99.90;;;;;;4957669;28;20209;-73
2020/12/24 14:28:05;;;;;;;22.65;15.27;;;6.00;99.90;;;;;;4956443;28;20233;-74
2020/12/24 14:30:32;;;;;;;24.88;15.48;;;6.00;99.90;;;;;;4958197;28;20229;-74
2020/12/24 14:32:58;;;;;;;25.42;15.00;;;6.00;99.90;;;;;;4956139;28;20220;-72
2020/12/24 14:35:24;;;;;;;27.83;14.95;;;6.00;99.90;;;;;;4958872;28;20214;-73
2020/12/24 14:37:51;;;;;;;21.20;14.50;;;6.00;99.90;;;;;;4959282;28;20212;-72
2020/12/24 14:40:17;;;;;;;28.40;14.52;;;6.00;99.90;;;;;;4959204;28;20220;-72
2020/12/24 14:42:43;;;;;;;28.02;15.65;;;6.00;99.90;;;;;;4956455;28;20209;-72
2020/12/24 14:45:09;;;;;;;22.25;13.63;;;6.00;99.90;;;;;;4958568;28;20217;-72
2020/12/24 14:47:36;;;;;;;21.65;13.50;;;6.00;99.90;;;;;;4958955;28;20221;-72
2020/12/24 14:50:03;;;;;;;22.58;14.57;;;6.00;99.90;;;;;;4960240;28;20216;-72
2020/12/24 14:52:29;;;;;;;30.88;14.60;;;6.00;99.90;;;;;;4959778;28;20233;-72
2020/12/24 14:54:55;;;;;;;26.90;13.57;;;6.00;99.90;;;;;;4957936;28;20217;-71
2020/12/24 14:57:21;;;;;;;22.65;12.55;;;6.00;99.90;;;;;;4954628;28;20221;-71
2020/12/24 14:59:47;;;;;;;24.25;12.82;;;6.00;99.90;;;;;;4956159;28;20209;-73
2020/12/24 15:02:13;;;;;;;19.23;11.75;;;6.00;99.90;;;;;;4955493;28;20292;-71
2020/12/24 15:04:40;;;;;;;23.10;11.25;;;5.90;99.90;;;;;;4961861;28;20212;-73
2020/12/24 15:07:06;;;;;;;20.83;13.80;;;5.90;99.90;;;;;;4962681;28;20307;-70
2020/12/24 15:09:32;;;;;;;24.85;14.27;;;5.90;99.90;;;;;;4956776;28;20216;-70
2020/12/24 15:11:59;;;;;;;30.55;17.27;;;5.90;99.90;;;;;;4955636;28;20240;-70
2020/12/24 15:14:25;;;;;;;21.33;11.18;;;5.90;99.90;;;;;;4956094;28;20209;-70
2020/12/24 15:16:51;;;;;;;18.83;11.43;;;5.90;99.90;;;;;;4955335;28;20205;-70
2020/12/24 15:19:17;;;;;;;20.70;10.88;;;5.80;99.90;;;;;;4961339;28;20212;-71
2020/12/24 15:21:44;;;;;;;13.52;8.65;;;5.80;99.90;;;;;;4958917;28;20288;-70
2020/12/24 15:24:10;;;;;;;16.17;10.40;;;5.80;99.90;;;;;;4955715;28;20209;-70
2020/12/24 15:26:36;;;;;;;11.82;9.23;;;5.80;99.90;;;;;;4954136;28;20221;-70
2020/12/24 15:29:04;;;;;;;12.30;8.85;;;5.80;99.90;;;;;;4954654;28;20659;-70
2020/12/24 15:31:31;;;;;;;14.43;9.85;;;5.70;99.90;;;;;;4955275;28;20264;-70
2020/12/24 15:33:58;;;;;;;18.02;11.55;;;5.70;99.90;;;;;;4959055;28;20205;-70
2020/12/24 15:36:24;;;;;;;15.07;9.82;;;5.70;99.90;;;;;;4954536;28;20213;-71
2020/12/24 15:38:51;;;;;;;23.15;12.40;;;5.70;99.90;;;;;;4955720;28;20205;-70
2020/12/24 15:41:17;;;;;;;16.70;10.38;;;5.70;99.90;;;;;;4954901;28;20235;-70
2020/12/24 15:43:44;;;;;;;11.93;8.13;;;5.70;99.90;;;;;;4954090;28;20654;-70
2020/12/24 15:46:10;;;;;;;10.73;7.18;;;5.70;99.90;;;;;;4954631;28;20232;-72
2020/12/24 15:48:36;;;;;;;9.32;6.60;;;5.70;99.90;;;;;;4955150;28;20221;-72
2020/12/24 15:51:03;;;;;;;11.80;6.90;;;5.70;99.90;;;;;;4955290;28;20233;-70
2020/12/24 15:53:30;;;;;;;9.52;7.10;;;5.60;99.90;;;;;;4953964;28;20236;-71
2020/12/24 15:55:57;;;;;;;7.10;6.40;;;5.60;99.90;;;;;;4953951;28;20210;-71
2020/12/24 15:58:24;;;;;;;8.15;6.75;;;5.60;99.90;;;;;;4954103;28;20253;-71
2020/12/24 16:00:50;;;;;;;7.88;6.40;;;5.60;99.90;;;;;;4954715;28;20296;-71
2020/12/24 16:03:16;;;;;;;8.10;7.22;;;5.60;99.90;;;;;;4954266;28;20205;-73
2020/12/24 16:05:42;;;;;;;10.43;7.20;;;5.60;99.90;;;;;;4955658;28;20201;-71
2020/12/24 16:08:08;;;;;;;5.88;5.30;;;5.60;99.90;;;;;;4955723;28;20303;-72
2020/12/24 16:10:34;;;;;;;12.85;6.80;;;5.60;99.90;;;;;;4956180;28;20230;-72
2020/12/24 16:13:01;;;;;;;8.80;6.70;;;5.50;99.90;;;;;;4951958;28;20296;-71
2020/12/24 16:15:28;;;;;;;8.77;5.80;;;5.50;99.90;;;;;;4954348;28;20685;-71
2020/12/24 16:17:54;;;;;;;8.32;6.35;;;5.50;99.90;;;;;;4956095;28;20582;-74
2020/12/24 16:20:20;;;;;;;8.10;6.95;;;5.50;99.90;;;;;;4957547;28;20276;-73
2020/12/24 16:22:46;;;;;;;13.13;9.32;;;5.50;99.90;;;;;;4956537;28;20217;-72
2020/12/24 16:25:12;;;;;;;16.10;11.15;;;5.50;99.90;;;;;;4956609;28;20210;-71
2020/12/24 16:27:38;;;;;;;18.55;14.05;;;5.50;99.90;;;;;;4955286;28;20229;-72
2020/12/24 16:30:06;;;;;;;19.10;10.60;;;5.50;99.90;;;;;;4954703;28;20209;-71
2020/12/24 16:32:32;;;;;;;17.92;14.40;;;5.50;99.90;;;;;;4953795;28;20674;-71
2020/12/24 16:34:58;;;;;;;12.63;9.68;;;5.50;99.90;;;;;;4954289;28;20570;-71
2020/12/24 16:37:25;;;;;;;12.30;11.02;;;5.50;99.90;;;;;;4953478;28;20670;-70
2020/12/24 16:39:51;;;;;;;31.75;23.75;;;5.40;99.90;;;;;;4954390;28;20304;-71
2020/12/24 16:42:17;;;;;;;17.50;15.18;;;5.40;99.90;;;;;;4953190;28;20328;-70
2020/12/24 16:44:43;;;;;;;24.77;15.77;;;5.50;99.90;;;;;;4953250;28;20224;-71
2020/12/24 16:47:10;;;;;;;23.02;21.02;;;5.50;99.90;;;;;;4953129;28;20595;-71
2020/12/24 16:49:36;;;;;;;18.58;12.07;;;5.50;99.90;;;;;;4954162;28;20216;-71
2020/12/24 16:52:02;;;;;;;15.02;11.38;;;5.50;99.90;;;;;;4954822;28;20233;-71
2020/12/24 16:54:30;;;;;;;13.80;12.40;;;5.50;99.90;;;;;;4956179;28;20254;-68
2020/12/24 16:56:59;;;;;;;13.43;11.10;;;5.50;99.90;;;;;;4952201;28;20214;-69
2020/12/24 16:59:27;;;;;;;13.63;12.18;;;5.50;99.90;;;;;;4953172;28;20292;-71
2020/12/24 17:01:53;;;;;;;19.20;16.95;;;5.50;99.90;;;;;;4951844;28;20304;-70
2020/12/24 17:04:20;;;;;;;11.43;9.65;;;5.50;99.90;;;;;;4953329;28;20206;-70
2020/12/24 17:06:51;;;;;;;22.77;12.05;;;5.50;99.90;;;;;;4952789;28;20622;-71
2020/12/24 17:09:17;;;;;;;10.25;7.45;;;5.50;99.90;;;;;;4953279;28;20232;-71
2020/12/24 17:11:43;;;;;;;13.48;10.25;;;5.40;99.90;;;;;;4952127;28;20236;-71
2020/12/24 17:14:09;;;;;;;21.60;19.20;;;5.40;99.90;;;;;;4952192;28;20585;-71
2020/12/24 17:16:35;;;;;;;37.92;31.50;;;5.40;99.90;;;;;;4946254;28;20359;-72
2020/12/24 17:19:02;;;;;;;36.55;28.48;;;5.40;99.90;;;;;;4952970;28;20217;-71
2020/12/24 17:21:30;;;;;;;22.75;20.35;;;5.40;99.90;;;;;;4954424;28;20244;-73
2020/12/24 17:23:57;;;;;;;33.10;29.70;;;5.40;99.90;;;;;;4951737;28;20205;-71
2020/12/24 17:26:26;;;;;;;28.23;24.60;;;5.40;99.90;;;;;;4952691;29;20272;-72
2020/12/24 17:28:53;;;;;;;23.90;19.15;;;5.40;99.90;;;;;;4952640;28;20284;-72
2020/12/24 17:31:20;;;;;;;31.55;21.95;;;5.40;99.90;;;;;;4952872;28;20236;-73
2020/12/24 17:33:47;;;;;;;43.50;31.20;;;5.40;99.90;;;;;;4952681;29;20300;-72
2020/12/24 17:36:13;;;;;;;27.73;21.30;;;5.40;99.90;;;;;;4952745;28;20515;-72
2020/12/24 17:38:41;;;;;;;21.23;13.98;;;5.40;99.90;;;;;;4952935;28;20274;-73
2020/12/24 17:41:09;;;;;;;18.15;12.70;;;5.30;99.90;;;;;;4953304;28;20265;-72
2020/12/24 17:43:36;;;;;;;18.83;12.85;;;5.30;99.90;;;;;;4951736;28;20233;-72
2020/12/24 17:46:02;;;;;;;17.70;13.38;;;5.30;99.90;;;;;;4952277;29;20201;-72
2020/12/24 17:48:28;;;;;;;14.43;11.13;;;5.30;99.90;;;;;;4952927;28;20229;-73
2020/12/24 17:50:54;;;;;;;15.05;11.32;;;5.30;99.90;;;;;;4953195;28;20276;-73
2020/12/24 17:53:20;;;;;;;14.10;10.20;;;5.20;99.90;;;;;;4952345;28;20264;-73